Terminal Aerodrome Forecast
Issued by NWS

Home | Current Version | Previous Version | Graphics & Text | Print | Product List | Glossary On
Versions: 1 2 3 4 5 6 7 8 9 10 11 12 13 14 15 16 17 18 19 20 21 22
000
FTUS43 KOAX 271500 AAA
TAFCDR
TAF AMD
KCDR 271542Z 2716/2812 07006KT P6SM VCSH SCT025
      TEMPO 2716/2718 BKN025
     FM280100 VRB05KT 4SM -RA BR BKN020 OVC050=

USA.gov is the U.S. government's official web portal to all federal, state and local government web resources and services.